Time;durP1;ratioP1;P1;durP2;ratioP2;P2;SDS_P1;SDS_P2;PMS_P1;PMS_P2;Temp;Humidity;BMP_temperature;BMP_pressure;BME280_temperature;BME280_humidity;BME280_pressure;Samples;Min_cycle;Max_cycle;Signal;HPM_P1;HPM_P2
2022/08/11 00:01:22;;;;;;;26.27;14.93;;;25.50;99.90;;;;;;4817284;29;20070;-93
2022/08/11 00:04:07;;;;;;;29.38;16.83;;;25.50;99.90;;;;;;4814609;29;20038;-93
2022/08/11 00:06:37;;;;;;;34.05;17.50;;;25.50;99.90;;;;;;4814664;29;20042;-93
2022/08/11 00:09:11;;;;;;;27.63;16.73;;;25.50;99.90;;;;;;4814017;29;20137;-93
2022/08/11 00:11:52;;;;;;;26.75;14.48;;;25.50;99.90;;;;;;4815131;29;20492;-94
2022/08/11 00:14:55;;;;;;;20.27;13.38;;;25.50;99.90;;;;;;4829528;29;20037;-92
2022/08/11 00:17:28;;;;;;;26.27;12.48;;;25.50;99.90;;;;;;4848415;29;20164;-93
2022/08/11 00:20:06;;;;;;;26.88;11.90;;;25.50;99.90;;;;;;4831713;29;20116;-94
2022/08/11 00:22:34;;;;;;;19.75;10.02;;;25.50;99.90;;;;;;4830953;29;20030;-92
2022/08/11 00:25:14;;;;;;;22.55;9.50;;;25.50;99.90;;;;;;4817290;29;20054;-93
2022/08/11 00:27:42;;;;;;;15.73;8.80;;;25.50;99.90;;;;;;4848905;29;20045;-92
2022/08/11 00:30:13;;;;;;;17.67;9.45;;;25.50;99.90;;;;;;4834225;29;20034;-93
2022/08/11 00:32:57;;;;;;;19.27;9.02;;;25.50;99.90;;;;;;4853030;29;20066;-93
2022/08/11 00:35:30;;;;;;;16.35;8.55;;;25.50;99.90;;;;;;4835151;29;20148;-93
2022/08/11 00:38:05;;;;;;;16.70;8.60;;;25.50;99.90;;;;;;4846805;29;20041;-93
2022/08/11 00:40:51;;;;;;;18.73;9.65;;;25.50;99.90;;;;;;4847293;29;20124;-92
2022/08/11 00:43:45;;;;;;;14.85;7.70;;;25.50;99.90;;;;;;4847101;29;20114;-93
2022/08/11 00:46:41;;;;;;;13.85;7.82;;;25.50;99.90;;;;;;4817366;29;20042;-94
2022/08/11 00:50:12;;;;;;;18.38;9.07;;;25.50;99.90;;;;;;4831659;29;20046;-93
2022/08/11 00:52:59;;;;;;;17.55;9.07;;;25.50;99.90;;;;;;4850425;29;20038;-93
2022/08/11 00:56:08;;;;;;;15.60;8.02;;;25.50;99.90;;;;;;4851151;29;20357;-93
2022/08/11 00:59:00;;;;;;;16.60;9.55;;;25.40;99.90;;;;;;4868880;29;20036;-93
2022/08/11 01:02:04;;;;;;;16.75;7.60;;;25.40;99.90;;;;;;4884277;29;20124;-93
2022/08/11 01:04:56;;;;;;;14.73;7.90;;;25.40;99.90;;;;;;4867783;29;20033;-93
2022/08/11 01:07:56;;;;;;;18.35;8.45;;;25.30;99.90;;;;;;4886345;29;20064;-93
2022/08/11 01:10:43;;;;;;;21.75;9.40;;;25.30;99.90;;;;;;4871420;29;20052;-93
2022/08/11 01:13:28;;;;;;;17.27;8.30;;;25.30;99.90;;;;;;4884586;29;20032;-93
2022/08/11 01:16:15;;;;;;;;;;;;;;;;;;;;;
2022/08/11 01:19:10;;;;;;;19.50;8.23;;;25.30;99.90;;;;;;4883185;29;20044;-93
2022/08/11 01:22:07;;;;;;;16.88;8.45;;;25.30;99.90;;;;;;4889643;29;20077;-93
2022/08/11 01:25:17;;;;;;;17.45;8.05;;;25.30;99.90;;;;;;4885874;29;20188;-93
2022/08/11 01:28:12;;;;;;;13.75;7.72;;;25.30;99.90;;;;;;4884397;29;20045;-93
2022/08/11 01:31:08;;;;;;;16.58;7.50;;;25.30;99.90;;;;;;4884176;29;20029;-93
2022/08/11 01:34:11;;;;;;;16.85;8.85;;;25.30;99.90;;;;;;4868092;29;20057;-94
2022/08/11 01:37:02;;;;;;;19.02;8.15;;;25.20;99.90;;;;;;4883417;29;20078;-93
2022/08/11 01:39:32;;;;;;;19.02;8.68;;;25.20;99.90;;;;;;4883283;29;20033;-93
2022/08/11 01:45:21;;;;;;;19.23;8.13;;;25.20;99.90;;;;;;4882356;29;20040;-92
2022/08/11 01:48:08;;;;;;;21.25;8.25;;;25.20;99.90;;;;;;4882425;29;20029;-93
2022/08/11 01:50:42;;;;;;;20.30;7.88;;;25.20;99.90;;;;;;4883935;29;20039;-92
2022/08/11 01:53:36;;;;;;;16.65;8.10;;;25.20;99.90;;;;;;4883237;29;20037;-93
2022/08/11 01:56:57;;;;;;;19.30;7.85;;;25.20;99.90;;;;;;4883765;29;20467;-93
2022/08/11 01:59:35;;;;;;;15.30;7.78;;;25.20;99.90;;;;;;4829860;29;20042;-93
2022/08/11 02:02:21;;;;;;;25.25;8.05;;;25.20;99.90;;;;;;4889722;29;20096;-92
2022/08/11 02:05:19;;;;;;;14.38;7.43;;;25.10;99.90;;;;;;4872767;29;20033;-92
2022/08/11 02:08:04;;;;;;;11.98;6.97;;;25.10;99.90;;;;;;4885200;29;20029;-92
2022/08/11 02:13:51;;;;;;;18.40;7.93;;;25.10;99.90;;;;;;4885124;29;20036;-93
2022/08/11 02:16:42;;;;;;;15.20;7.60;;;25.10;99.90;;;;;;4886575;29;20037;-93
2022/08/11 02:25:45;;;;;;;13.07;7.35;;;25.10;99.90;;;;;;4884810;29;20057;-94
2022/08/11 02:29:04;;;;;;;15.30;7.78;;;25.10;99.90;;;;;;4884924;29;20487;-93
2022/08/11 02:34:54;;;;;;;16.58;7.05;;;25.10;99.90;;;;;;4830187;29;20034;-93
2022/08/11 02:38:01;;;;;;;;;;;;;;;;;;;;;
2022/08/11 02:40:37;;;;;;;11.35;6.90;;;25.10;99.90;;;;;;4832025;29;20046;-94
2022/08/11 02:43:33;;;;;;;14.45;7.15;;;25.00;99.90;;;;;;4825265;29;20058;-93
2022/08/11 02:46:38;;;;;;;14.18;6.70;;;25.00;99.90;;;;;;4809981;29;20118;-93
2022/08/11 02:49:53;;;;;;;19.67;7.63;;;25.00;99.90;;;;;;4810769;29;20039;-91
2022/08/11 02:52:25;;;;;;;17.83;7.28;;;25.00;99.90;;;;;;4834659;29;20038;-93
2022/08/11 02:55:00;;;;;;;;;;;25.00;99.90;;;;;;4834276;29;20058;-93
2022/08/11 02:57:52;;;;;;;16.80;6.63;;;25.00;99.90;;;;;;4837601;29;20531;-93
2022/08/11 03:00:22;;;;;;;11.30;6.35;;;25.00;99.90;;;;;;4824101;29;20053;-93
2022/08/11 03:02:57;;;;;;;17.20;7.03;;;25.00;99.90;;;;;;4868500;29;20037;-93
2022/08/11 03:05:33;;;;;;;14.25;7.05;;;25.00;99.90;;;;;;4869066;29;20051;-92
2022/08/11 03:08:37;;;;;;;13.13;6.22;;;25.00;99.90;;;;;;4867196;29;20033;-92
2022/08/11 03:17:28;;;;;;;19.23;6.47;;;24.90;99.90;;;;;;4882173;29;20558;-92
2022/08/11 03:20:17;;;;;;;14.63;6.93;;;24.90;99.90;;;;;;4866810;29;20148;-93
2022/08/11 03:23:10;;;;;;;13.13;6.70;;;24.90;99.90;;;;;;4882257;29;20029;-92
2022/08/11 03:26:13;;;;;;;17.52;6.68;;;24.90;99.90;;;;;;4825637;29;20400;-93
2022/08/11 03:29:07;;;;;;;12.50;6.70;;;24.90;99.90;;;;;;5017115;23;20134;31
2022/08/11 03:31:56;;;;;;;19.52;6.65;;;24.90;99.90;;;;;;4862292;29;20077;-93
2022/08/11 03:34:28;;;;;;;14.63;6.75;;;24.90;99.90;;;;;;4857633;29;20033;-92
2022/08/11 03:37:05;;;;;;;16.67;6.03;;;24.90;99.90;;;;;;4857591;29;20034;-92
2022/08/11 03:39:50;;;;;;;13.48;6.60;;;24.90;99.90;;;;;;4850127;29;20032;-93
2022/08/11 03:42:41;;;;;;;13.45;6.25;;;24.90;99.90;;;;;;4831697;29;20069;-93
2022/08/11 03:45:35;;;;;;;12.85;6.30;;;24.90;99.90;;;;;;4830501;29;20034;-94
2022/08/11 03:48:17;;;;;;;11.63;6.35;;;24.80;99.90;;;;;;4829883;29;20041;-93
2022/08/11 03:51:00;;;;;;;16.50;6.38;;;24.80;99.90;;;;;;4829308;29;20120;-93
2022/08/11 03:53:45;;;;;;;11.77;6.90;;;24.90;99.90;;;;;;4829807;29;20125;-92
2022/08/11 03:56:47;;;;;;;16.73;7.55;;;24.90;99.90;;;;;;4829055;29;20117;-93
2022/08/11 03:59:38;;;;;;;17.10;7.18;;;24.90;99.90;;;;;;4813902;29;20031;-94
2022/08/11 04:02:49;;;;;;;14.77;7.30;;;24.90;99.90;;;;;;4828927;29;20045;-94
2022/08/11 04:05:49;;;;;;;15.13;7.07;;;24.90;99.90;;;;;;4810439;29;20198;-93
2022/08/11 04:09:18;;;;;;;14.77;5.97;;;24.90;99.90;;;;;;4810085;29;20038;-92
2022/08/11 04:12:12;;;;;;;14.13;6.50;;;24.90;99.90;;;;;;4756391;30;20371;-93
2022/08/11 04:18:27;;;;;;;16.00;6.75;;;25.00;99.90;;;;;;4823561;29;20053;-94
2022/08/11 04:21:11;;;;;;;19.42;7.32;;;25.00;99.90;;;;;;4826490;29;20041;-92
2022/08/11 04:24:03;;;;;;;18.63;6.80;;;25.10;99.90;;;;;;4813715;29;20501;-93
2022/08/11 04:27:12;;;;;;;23.92;8.32;;;25.20;99.90;;;;;;4826703;29;20091;-93
2022/08/11 04:29:57;;;;;;;14.50;6.65;;;25.30;99.90;;;;;;4756418;30;20486;-92
2022/08/11 04:32:44;;;;;;;14.88;7.72;;;25.30;99.90;;;;;;4756473;30;20043;-94
2022/08/11 04:35:35;;;;;;;19.60;7.72;;;25.30;99.90;;;;;;4755630;30;20044;-93
2022/08/11 04:38:20;;;;;;;19.67;7.68;;;25.40;99.90;;;;;;4756149;30;20137;-94
2022/08/11 04:41:26;;;;;;;14.15;6.55;;;25.50;99.90;;;;;;4755567;30;20051;-92
2022/08/11 04:44:04;;;;;;;19.35;8.75;;;25.60;99.90;;;;;;4738257;30;20036;-93
2022/08/11 04:47:07;;;;;;;18.75;7.45;;;25.70;99.90;;;;;;4738424;30;20422;-93
2022/08/11 05:01:40;;;;;;;18.15;7.70;;;26.70;99.90;;;;;;4758344;30;20107;-92
2022/08/11 05:05:29;;;;;;;19.30;7.53;;;27.20;99.90;;;;;;4747573;30;20044;-93
2022/08/11 05:07:24;;;;;;;15.65;7.30;;;28.00;99.90;;;;;;4806118;29;20045;-91
2022/08/11 05:10:37;;;;;;;20.00;7.40;;;28.70;99.90;;;;;;4843791;29;20063;-93
2022/08/11 05:36:53;;;;;;;21.45;8.23;;;27.60;99.90;;;;;;4847265;29;20042;-92
2022/08/11 05:56:56;;;;;;;17.58;7.45;;;30.90;99.90;;;;;;4847695;29;20095;-92
2022/08/11 05:59:27;;;;;;;15.35;8.25;;;31.30;99.90;;;;;;4828489;29;20472;-92
2022/08/11 06:02:01;;;;;;;14.02;7.55;;;31.50;99.90;;;;;;4827424;29;20030;-92
2022/08/11 06:04:29;;;;;;;13.43;7.47;;;31.60;99.90;;;;;;4827627;29;20053;-93
2022/08/11 06:06:59;;;;;;;10.65;7.50;;;31.20;99.90;;;;;;4827214;29;20045;-92
2022/08/11 06:09:35;;;;;;;11.05;8.50;;;31.60;99.90;;;;;;4827505;29;20030;-92
2022/08/11 06:12:15;;;;;;;17.75;12.40;;;32.20;99.90;;;;;;4827524;29;20065;-93
2022/08/11 06:14:44;;;;;;;20.02;14.43;;;31.90;99.90;;;;;;4827661;29;20034;-92
2022/08/11 06:17:15;;;;;;;28.33;15.82;;;31.60;99.90;;;;;;4842606;29;20506;-92
2022/08/11 06:19:47;;;;;;;21.75;15.38;;;31.70;99.90;;;;;;4842838;29;20030;-92
2022/08/11 06:22:20;;;;;;;21.90;15.55;;;31.70;99.90;;;;;;4827216;29;20084;-93
2022/08/11 06:25:01;;;;;;;20.63;15.98;;;31.60;99.90;;;;;;4829349;29;20038;-93
2022/08/11 06:27:31;;;;;;;20.63;14.70;;;31.50;99.90;;;;;;4846284;29;20038;-92
2022/08/11 06:29:58;;;;;;;22.63;16.65;;;31.70;99.90;;;;;;4830330;29;20121;-92
2022/08/11 06:32:34;;;;;;;23.50;16.67;;;32.10;99.90;;;;;;4831550;29;20038;-93
2022/08/11 06:35:18;;;;;;;24.50;19.77;;;31.90;99.90;;;;;;4830607;29;20026;-93
2022/08/11 06:38:03;;;;;;;20.55;16.38;;;32.20;99.90;;;;;;4830501;29;20548;-92
2022/08/11 06:40:41;;;;;;;21.83;19.15;;;32.30;99.90;;;;;;4833928;29;20026;-92
2022/08/11 06:43:45;;;;;;;24.38;18.40;;;32.40;99.90;;;;;;4832932;29;20038;-94
2022/08/11 06:46:16;;;;;;;24.50;18.17;;;32.30;99.90;;;;;;4830805;29;20062;-93
2022/08/11 06:48:45;;;;;;;22.75;17.95;;;32.10;99.90;;;;;;4831456;29;20030;-93
2022/08/11 06:51:15;;;;;;;29.27;20.02;;;32.40;99.90;;;;;;4831748;29;20034;-93
2022/08/11 07:02:55;;;;;;;23.27;17.80;;;32.70;99.90;;;;;;4830311;29;20041;-92
2022/08/11 07:05:37;;;;;;;22.92;17.55;;;32.70;99.90;;;;;;4829729;29;20125;-93
2022/08/11 07:16:59;;;;;;;19.98;16.65;;;33.30;99.90;;;;;;4829450;29;20029;-93
2022/08/11 07:31:20;;;;;;;18.92;16.02;;;32.60;99.90;;;;;;4829436;29;20050;-91
2022/08/11 07:34:01;;;;;;;17.50;15.68;;;32.80;99.90;;;;;;4833299;29;20022;-85
2022/08/11 07:36:30;;;;;;;18.52;15.18;;;33.30;99.90;;;;;;4828887;29;20044;-86
2022/08/11 07:38:57;;;;;;;21.25;15.25;;;33.20;99.90;;;;;;4813425;29;20087;-85
2022/08/11 07:41:27;;;;;;;19.17;15.05;;;33.00;99.90;;;;;;4813385;29;20129;-85
2022/08/11 07:44:07;;;;;;;18.40;15.30;;;33.50;99.90;;;;;;4813272;29;20064;-85
2022/08/11 07:52:31;;;;;;;18.70;16.75;;;33.70;99.90;;;;;;4828455;29;20055;-85
2022/08/11 07:55:02;;;;;;;18.13;16.33;;;33.70;99.90;;;;;;4813561;29;20045;-84
2022/08/11 08:19:47;;;;;;;15.80;14.23;;;33.60;99.90;;;;;;4835415;29;20085;-88
2022/08/11 08:22:21;;;;;;;15.77;14.03;;;33.80;99.90;;;;;;4813498;29;20030;-87
2022/08/11 08:24:48;;;;;;;15.10;13.57;;;33.50;99.90;;;;;;4825431;29;20030;-87
2022/08/11 08:27:15;;;;;;;16.83;15.38;;;33.50;99.90;;;;;;4814231;29;20480;-87
2022/08/11 08:32:28;;;;;;;16.42;14.25;;;33.50;99.90;;;;;;4838662;29;20045;-81
2022/08/11 08:34:56;;;;;;;15.90;14.32;;;33.60;99.90;;;;;;4831993;29;20146;-87
2022/08/11 08:37:25;;;;;;;16.80;15.02;;;33.30;99.90;;;;;;4812500;29;20034;-87
2022/08/11 08:39:52;;;;;;;16.77;13.82;;;33.40;99.90;;;;;;4812714;29;20026;-87
2022/08/11 08:42:24;;;;;;;14.30;12.90;;;33.40;99.90;;;;;;4813226;29;20485;-88
2022/08/11 08:44:55;;;;;;;14.73;13.40;;;33.50;99.90;;;;;;4812903;29;20041;-88
2022/08/11 08:47:26;;;;;;;14.57;13.30;;;33.80;99.90;;;;;;4812671;29;20488;-89
2022/08/11 08:50:01;;;;;;;16.33;14.82;;;34.00;99.90;;;;;;4813127;29;20037;-85
2022/08/11 08:52:40;;;;;;;15.90;14.32;;;34.30;99.90;;;;;;4812380;29;20034;-88
2022/08/11 08:55:11;;;;;;;16.70;15.07;;;34.30;99.90;;;;;;4812892;29;20471;-87
2022/08/11 08:57:41;;;;;;;15.32;14.00;;;34.20;99.90;;;;;;4827046;29;20045;-83
2022/08/11 09:00:08;;;;;;;15.57;14.27;;;33.50;99.90;;;;;;4827013;29;20094;-83
2022/08/11 09:02:36;;;;;;;15.32;13.43;;;33.70;99.90;;;;;;4826906;29;20065;-84
2022/08/11 09:05:04;;;;;;;15.18;13.73;;;33.50;99.90;;;;;;4826576;29;20041;-84
2022/08/11 09:07:31;;;;;;;13.30;12.10;;;33.20;99.90;;;;;;4839617;29;20065;-82
2022/08/11 09:09:59;;;;;;;13.77;12.57;;;33.10;99.90;;;;;;4845296;29;20117;-85
2022/08/11 09:12:30;;;;;;;13.95;12.60;;;32.80;99.90;;;;;;4844943;29;20058;-85
2022/08/11 09:15:03;;;;;;;14.23;13.00;;;32.80;99.90;;;;;;4861546;29;20033;-84
2022/08/11 09:17:51;;;;;;;14.40;13.20;;;32.90;99.90;;;;;;4861489;29;20033;-83
2022/08/11 09:20:25;;;;;;;14.10;12.75;;;32.80;99.90;;;;;;4844574;29;20094;-84
2022/08/11 09:28:53;;;;;;;15.05;13.65;;;32.40;99.90;;;;;;4863682;29;20112;-92
2022/08/11 09:31:21;;;;;;;15.40;13.98;;;32.00;99.90;;;;;;4831544;29;20041;-94
2022/08/11 09:33:52;;;;;;;14.10;12.90;;;31.60;99.90;;;;;;4830482;29;20041;-91
2022/08/11 09:41:51;;;;;;;18.73;15.23;;;32.50;99.90;;;;;;4845496;29;20049;-93
2022/08/11 09:47:07;;;;;;;15.75;14.15;;;32.60;99.90;;;;;;4845321;29;20048;-92
2022/08/11 09:49:33;;;;;;;14.57;13.27;;;32.80;99.90;;;;;;4830639;29;20085;-91
2022/08/11 09:52:02;;;;;;;14.75;13.65;;;32.70;99.90;;;;;;4830258;29;20034;-92
2022/08/11 09:54:29;;;;;;;16.38;14.38;;;33.10;99.90;;;;;;4830602;29;20030;-92
2022/08/11 09:59:41;;;;;;;14.80;13.50;;;32.60;99.90;;;;;;4847378;29;20034;-92
2022/08/11 10:02:10;;;;;;;15.88;14.63;;;32.20;99.90;;;;;;4833780;29;20093;-90
2022/08/11 10:04:40;;;;;;;14.60;13.50;;;32.20;99.90;;;;;;4833690;29;20030;-94
2022/08/11 10:07:09;;;;;;;14.40;13.40;;;32.00;99.90;;;;;;4833779;29;20086;-92
2022/08/11 10:10:01;;;;;;;15.05;13.85;;;32.10;99.90;;;;;;4833926;29;20025;-92
2022/08/11 10:12:33;;;;;;;14.55;13.43;;;32.30;99.90;;;;;;4835022;29;20042;-93
2022/08/11 10:20:50;;;;;;;14.35;13.25;;;32.70;99.90;;;;;;4848879;29;20037;-93
2022/08/11 10:28:52;;;;;;;15.07;13.77;;;32.70;99.90;;;;;;4848495;29;20029;-94
2022/08/11 10:34:08;;;;;;;14.95;13.80;;;32.30;99.90;;;;;;4848880;29;20471;-94
2022/08/11 10:36:45;;;;;;;13.82;12.82;;;32.60;99.90;;;;;;4833664;29;20038;-92
2022/08/11 10:39:16;;;;;;;14.23;13.02;;;32.80;99.90;;;;;;4833917;29;20038;-93
2022/08/11 10:44:37;;;;;;;15.52;14.25;;;32.40;99.90;;;;;;4850286;29;20124;-93
2022/08/11 11:00:57;;;;;;;13.55;12.43;;;32.70;99.90;;;;;;4848604;29;20063;-91
2022/08/11 11:03:30;;;;;;;13.55;12.55;;;32.20;99.90;;;;;;4833386;29;20392;-90
2022/08/11 11:06:42;;;;;;;13.82;12.73;;;32.00;99.90;;;;;;4833378;29;20069;-92
2022/08/11 11:09:36;;;;;;;13.70;12.70;;;32.10;99.90;;;;;;4834422;29;20542;-91
2022/08/11 11:18:35;;;;;;;14.98;13.77;;;32.50;99.90;;;;;;4849174;29;20105;-93
2022/08/11 11:21:14;;;;;;;15.43;14.27;;;32.60;99.90;;;;;;4835735;29;20042;-93
2022/08/11 11:24:38;;;;;;;14.23;13.23;;;32.50;99.90;;;;;;4835312;29;20044;-91
2022/08/11 11:27:49;;;;;;;15.38;14.20;;;32.20;99.90;;;;;;4796523;29;20062;-93
2022/08/11 11:30:17;;;;;;;15.50;14.40;;;32.30;99.90;;;;;;4794109;29;20054;-93
2022/08/11 11:32:55;;;;;;;14.75;13.68;;;32.40;99.90;;;;;;4793791;29;20039;-94
2022/08/11 11:35:43;;;;;;;16.17;14.65;;;32.60;99.90;;;;;;4793482;29;20035;-94
2022/08/11 11:38:11;;;;;;;15.38;14.02;;;32.60;99.90;;;;;;4793051;29;20550;-92
2022/08/11 11:41:23;;;;;;;14.93;13.80;;;32.70;99.90;;;;;;4798045;29;20096;-92
2022/08/11 11:43:42;;;;;;;15.70;14.38;;;32.70;99.90;;;;;;5146799;23;20076;-93
2022/08/11 11:47:00;;;;;;;15.10;14.10;;;32.40;99.90;;;;;;4871748;29;20105;-94
2022/08/11 11:49:42;;;;;;;14.90;13.77;;;32.20;99.90;;;;;;4850115;29;20065;-93
2022/08/11 12:03:22;;;;;;;14.50;13.38;;;32.60;99.90;;;;;;4917039;29;20043;-93
2022/08/11 12:14:41;;;;;;;;;;;;;;;;;;;;;
2022/08/11 12:17:34;;;;;;;15.35;13.95;;;32.60;99.90;;;;;;4921144;29;20040;-93
2022/08/11 12:20:24;;;;;;;16.33;14.73;;;32.40;99.90;;;;;;4902723;29;20045;-93
2022/08/11 12:29:54;;;;;;;15.05;13.65;;;32.40;99.90;;;;;;4862607;29;20034;-92
2022/08/11 12:35:49;;;;;;;14.30;13.35;;;32.40;99.90;;;;;;5545503;23;20067;-92
2022/08/11 12:38:47;;;;;;;15.70;14.20;;;32.50;99.90;;;;;;4921653;29;20058;-91
2022/08/11 13:39:12;;;;;;;12.25;11.07;;;31.80;99.90;;;;;;2310745;23;20412;-92
2022/08/11 13:41:42;;;;;;;13.38;11.98;;;31.80;99.90;;;;;;4886441;29;20482;-92
2022/08/11 13:44:15;;;;;;;12.82;11.57;;;31.80;99.90;;;;;;4901539;29;20028;-93
2022/08/11 13:46:42;;;;;;;13.93;11.55;;;31.20;99.90;;;;;;4901183;29;20479;-93
2022/08/11 13:49:10;;;;;;;17.88;12.07;;;30.90;99.90;;;;;;4901583;29;20024;-90
2022/08/11 13:51:38;;;;;;;13.00;11.80;;;31.00;99.90;;;;;;4901684;29;20036;-91
2022/08/11 13:54:23;;;;;;;14.57;13.18;;;31.10;99.90;;;;;;4901642;29;20024;-92
2022/08/11 13:56:53;;;;;;;14.23;12.15;;;31.20;99.90;;;;;;4901296;29;20028;-91
2022/08/11 13:59:21;;;;;;;15.68;13.85;;;31.10;99.90;;;;;;4901162;29;20024;-91
2022/08/11 14:01:52;;;;;;;15.02;13.60;;;31.00;99.90;;;;;;4901098;29;20044;-91
2022/08/11 14:04:42;;;;;;;15.60;14.20;;;31.30;99.90;;;;;;4901306;29;20446;-93
2022/08/11 14:07:10;;;;;;;16.42;14.93;;;31.30;99.90;;;;;;4901601;29;20168;-92
2022/08/11 14:09:52;;;;;;;13.95;12.55;;;31.50;99.90;;;;;;4902440;29;20032;-91
2022/08/11 14:15:42;;;;;;;16.38;13.45;;;31.20;99.90;;;;;;4902333;29;20036;-90
2022/08/11 14:18:17;;;;;;;13.80;12.23;;;31.20;99.90;;;;;;4903187;29;20371;-91
2022/08/11 14:23:41;;;;;;;13.32;12.23;;;31.00;99.90;;;;;;4901969;29;20385;-93
2022/08/11 14:26:27;;;;;;;13.25;12.05;;;31.10;99.90;;;;;;4902651;29;20037;-92
2022/08/11 14:29:02;;;;;;;14.63;13.43;;;31.00;99.90;;;;;;4902999;29;20032;-92
2022/08/11 14:31:30;;;;;;;13.23;11.93;;;31.00;99.90;;;;;;4901842;29;20040;-92
2022/08/11 14:34:02;;;;;;;12.23;11.20;;;31.10;99.90;;;;;;4901837;29;20024;-92
2022/08/11 14:36:35;;;;;;;12.27;11.10;;;31.10;99.90;;;;;;4901929;29;20113;-90
2022/08/11 14:39:15;;;;;;;14.40;13.10;;;31.00;99.90;;;;;;4900966;29;20029;-91
2022/08/11 14:47:52;;;;;;;12.15;10.93;;;30.60;99.90;;;;;;4923254;29;20039;-92
2022/08/11 14:50:22;;;;;;;12.63;11.52;;;30.80;99.90;;;;;;4907597;29;20114;-90
2022/08/11 14:52:54;;;;;;;12.93;11.85;;;30.70;99.90;;;;;;4923540;29;20032;-90
2022/08/11 14:58:17;;;;;;;10.75;9.85;;;30.30;99.90;;;;;;4923125;29;20032;-94
2022/08/11 15:04:23;;;;;;;11.45;9.63;;;30.60;99.90;;;;;;4913289;29;20131;-91
2022/08/11 15:07:28;;;;;;;11.25;10.25;;;30.50;99.90;;;;;;4909325;29;20035;-92
2022/08/11 15:14:02;;;;;;;9.40;7.90;;;30.30;99.90;;;;;;4864118;29;19919;-93
2022/08/11 15:26:19;;;;;;;14.02;9.55;;;30.20;99.90;;;;;;4835431;29;20397;-92
2022/08/11 15:47:00;;;;;;;12.85;8.40;;;29.80;99.90;;;;;;4817217;29;20046;-92
2022/08/11 17:25:04;;;;;;;12.18;9.10;;;27.60;99.90;;;;;;5079691;23;20035;-93
2022/08/11 17:27:37;;;;;;;12.65;9.57;;;27.50;99.90;;;;;;4854140;29;20056;-92
2022/08/11 17:30:08;;;;;;;12.95;8.73;;;27.40;99.90;;;;;;4850892;29;20058;-93
2022/08/11 17:35:56;;;;;;;14.32;9.45;;;27.40;99.90;;;;;;4862654;29;20060;-93
2022/08/11 17:38:27;;;;;;;15.73;9.50;;;27.30;99.90;;;;;;4848259;29;20038;-92
2022/08/11 18:04:50;;;;;;;15.60;9.88;;;27.00;99.90;;;;;;5071294;23;19923;-91
